sensor_id;sensor_type;location;lat;lon;timestamp;temperature;humidity
7240;DHT22;3661;53.288;10.458;2023-05-19T00:01:56;8.90;97.00
7240;DHT22;3661;53.288;10.458;2023-05-19T00:04:30;8.90;97.10
7240;DHT22;3661;53.288;10.458;2023-05-19T00:07:04;8.90;97.30
7240;DHT22;3661;53.288;10.458;2023-05-19T00:09:39;8.90;96.90
7240;DHT22;3661;53.288;10.458;2023-05-19T00:12:14;8.90;96.70
7240;DHT22;3661;53.288;10.458;2023-05-19T00:14:47;8.90;96.80
7240;DHT22;3661;53.288;10.458;2023-05-19T00:17:20;8.90;96.40
7240;DHT22;3661;53.288;10.458;2023-05-19T00:19:52;8.90;96.40
7240;DHT22;3661;53.288;10.458;2023-05-19T00:22:25;8.90;96.20
7240;DHT22;3661;53.288;10.458;2023-05-19T00:24:58;8.90;96.20
7240;DHT22;3661;53.288;10.458;2023-05-19T00:27:32;8.90;96.10
7240;DHT22;3661;53.288;10.458;2023-05-19T00:30:06;8.90;96.10
7240;DHT22;3661;53.288;10.458;2023-05-19T00:32:38;8.90;96.20
7240;DHT22;3661;53.288;10.458;2023-05-19T00:35:11;8.90;96.10
7240;DHT22;3661;53.288;10.458;2023-05-19T00:37:44;8.90;96.10
7240;DHT22;3661;53.288;10.458;2023-05-19T00:40:16;8.90;96.40
7240;DHT22;3661;53.288;10.458;2023-05-19T00:42:50;8.90;96.10
7240;DHT22;3661;53.288;10.458;2023-05-19T00:45:24;8.90;96.10
7240;DHT22;3661;53.288;10.458;2023-05-19T00:47:56;8.90;96.10
7240;DHT22;3661;53.288;10.458;2023-05-19T00:50:29;8.80;96.10
7240;DHT22;3661;53.288;10.458;2023-05-19T00:53:02;8.80;96.10
7240;DHT22;3661;53.288;10.458;2023-05-19T00:55:42;8.80;96.20
7240;DHT22;3661;53.288;10.458;2023-05-19T00:58:16;8.80;96.30
7240;DHT22;3661;53.288;10.458;2023-05-19T01:00:50;8.80;96.40
7240;DHT22;3661;53.288;10.458;2023-05-19T01:03:22;8.80;96.40
7240;DHT22;3661;53.288;10.458;2023-05-19T01:06:00;8.70;96.50
7240;DHT22;3661;53.288;10.458;2023-05-19T01:08:38;8.70;96.50
7240;DHT22;3661;53.288;10.458;2023-05-19T01:11:13;8.70;96.60
7240;DHT22;3661;53.288;10.458;2023-05-19T01:13:47;8.70;96.70
7240;DHT22;3661;53.288;10.458;2023-05-19T01:16:24;8.70;96.70
7240;DHT22;3661;53.288;10.458;2023-05-19T01:19:03;8.70;96.90
7240;DHT22;3661;53.288;10.458;2023-05-19T01:22:08;8.60;96.90
7240;DHT22;3661;53.288;10.458;2023-05-19T01:25:05;8.60;96.90
7240;DHT22;3661;53.288;10.458;2023-05-19T01:30:52;8.60;97.10
7240;DHT22;3661;53.288;10.458;2023-05-19T01:33:26;8.60;97.10
7240;DHT22;3661;53.288;10.458;2023-05-19T01:36:00;8.60;97.20
7240;DHT22;3661;53.288;10.458;2023-05-19T01:38:34;8.60;97.20
7240;DHT22;3661;53.288;10.458;2023-05-19T01:41:09;8.60;97.30
7240;DHT22;3661;53.288;10.458;2023-05-19T01:43:44;8.60;97.40
7240;DHT22;3661;53.288;10.458;2023-05-19T01:46:18;8.50;97.60
7240;DHT22;3661;53.288;10.458;2023-05-19T01:48:51;8.50;97.80
7240;DHT22;3661;53.288;10.458;2023-05-19T01:51:24;8.50;97.90
7240;DHT22;3661;53.288;10.458;2023-05-19T01:53:57;8.50;98.40
7240;DHT22;3661;53.288;10.458;2023-05-19T01:56:40;8.40;98.70
7240;DHT22;3661;53.288;10.458;2023-05-19T01:59:26;8.40;99.10
7240;DHT22;3661;53.288;10.458;2023-05-19T02:02:13;8.40;99.30
7240;DHT22;3661;53.288;10.458;2023-05-19T02:04:56;8.30;99.50
7240;DHT22;3661;53.288;10.458;2023-05-19T02:07:36;8.30;99.90
7240;DHT22;3661;53.288;10.458;2023-05-19T02:10:21;8.30;99.90
7240;DHT22;3661;53.288;10.458;2023-05-19T02:12:56;8.30;99.90
7240;DHT22;3661;53.288;10.458;2023-05-19T02:15:36;8.20;99.90
7240;DHT22;3661;53.288;10.458;2023-05-19T02:18:11;8.20;99.90
7240;DHT22;3661;53.288;10.458;2023-05-19T02:20:48;8.20;99.90
7240;DHT22;3661;53.288;10.458;2023-05-19T02:23:21;8.10;99.90
7240;DHT22;3661;53.288;10.458;2023-05-19T02:25:53;8.10;99.90
7240;DHT22;3661;53.288;10.458;2023-05-19T02:28:27;8.00;99.90
7240;DHT22;3661;53.288;10.458;2023-05-19T02:31:00;8.00;99.90
7240;DHT22;3661;53.288;10.458;2023-05-19T02:33:41;8.00;99.90
7240;DHT22;3661;53.288;10.458;2023-05-19T02:36:14;8.00;99.90
7240;DHT22;3661;53.288;10.458;2023-05-19T02:38:48;7.90;99.90
7240;DHT22;3661;53.288;10.458;2023-05-19T02:41:21;7.90;99.90
7240;DHT22;3661;53.288;10.458;2023-05-19T02:43:56;7.90;99.90
7240;DHT22;3661;53.288;10.458;2023-05-19T02:46:30;7.90;99.90
7240;DHT22;3661;53.288;10.458;2023-05-19T02:49:04;7.90;99.90
7240;DHT22;3661;53.288;10.458;2023-05-19T02:51:38;7.80;99.90
7240;DHT22;3661;53.288;10.458;2023-05-19T02:54:10;7.80;99.90
7240;DHT22;3661;53.288;10.458;2023-05-19T02:56:43;7.80;99.90
7240;DHT22;3661;53.288;10.458;2023-05-19T02:59:18;7.80;99.90
7240;DHT22;3661;53.288;10.458;2023-05-19T03:01:55;7.80;99.90
7240;DHT22;3661;53.288;10.458;2023-05-19T03:04:29;7.80;99.90
7240;DHT22;3661;53.288;10.458;2023-05-19T03:07:01;7.70;99.90
7240;DHT22;3661;53.288;10.458;2023-05-19T03:09:36;7.70;99.90
7240;DHT22;3661;53.288;10.458;2023-05-19T03:12:08;7.70;99.90
7240;DHT22;3661;53.288;10.458;2023-05-19T03:14:40;7.70;99.90
7240;DHT22;3661;53.288;10.458;2023-05-19T03:17:14;7.70;99.90
7240;DHT22;3661;53.288;10.458;2023-05-19T03:19:47;7.70;99.90
7240;DHT22;3661;53.288;10.458;2023-05-19T03:22:21;7.70;99.90
7240;DHT22;3661;53.288;10.458;2023-05-19T03:24:53;7.70;99.90
7240;DHT22;3661;53.288;10.458;2023-05-19T03:27:28;7.70;99.90
7240;DHT22;3661;53.288;10.458;2023-05-19T03:30:01;7.70;99.90
7240;DHT22;3661;53.288;10.458;2023-05-19T03:32:33;7.70;99.90
7240;DHT22;3661;53.288;10.458;2023-05-19T03:35:10;7.70;99.90
7240;DHT22;3661;53.288;10.458;2023-05-19T03:37:43;7.70;99.90
7240;DHT22;3661;53.288;10.458;2023-05-19T03:40:16;7.70;99.90
7240;DHT22;3661;53.288;10.458;2023-05-19T03:42:49;7.70;99.90
7240;DHT22;3661;53.288;10.458;2023-05-19T03:45:21;7.70;99.90
7240;DHT22;3661;53.288;10.458;2023-05-19T03:47:53;7.70;99.90
7240;DHT22;3661;53.288;10.458;2023-05-19T03:50:28;7.70;99.90
7240;DHT22;3661;53.288;10.458;2023-05-19T03:53:04;7.70;99.90
7240;DHT22;3661;53.288;10.458;2023-05-19T03:55:36;7.70;99.90
7240;DHT22;3661;53.288;10.458;2023-05-19T03:58:09;7.70;99.90
7240;DHT22;3661;53.288;10.458;2023-05-19T04:00:44;7.70;99.90
7240;DHT22;3661;53.288;10.458;2023-05-19T04:03:19;7.70;99.90
7240;DHT22;3661;53.288;10.458;2023-05-19T04:05:55;7.70;99.90
7240;DHT22;3661;53.288;10.458;2023-05-19T04:08:28;7.70;99.90
7240;DHT22;3661;53.288;10.458;2023-05-19T04:11:02;7.70;99.90
7240;DHT22;3661;53.288;10.458;2023-05-19T04:13:34;7.70;99.90
7240;DHT22;3661;53.288;10.458;2023-05-19T04:16:10;7.70;99.90
7240;DHT22;3661;53.288;10.458;2023-05-19T04:18:42;7.70;99.90
7240;DHT22;3661;53.288;10.458;2023-05-19T04:21:17;7.70;99.90
7240;DHT22;3661;53.288;10.458;2023-05-19T04:23:52;7.70;99.90
7240;DHT22;3661;53.288;10.458;2023-05-19T04:26:24;7.80;99.90
7240;DHT22;3661;53.288;10.458;2023-05-19T04:28:56;7.80;99.90
7240;DHT22;3661;53.288;10.458;2023-05-19T04:31:28;7.80;99.90
7240;DHT22;3661;53.288;10.458;2023-05-19T04:34:01;7.80;99.90
7240;DHT22;3661;53.288;10.458;2023-05-19T04:36:38;7.80;99.90
7240;DHT22;3661;53.288;10.458;2023-05-19T04:39:14;7.80;99.90
7240;DHT22;3661;53.288;10.458;2023-05-19T04:41:47;7.90;99.90
7240;DHT22;3661;53.288;10.458;2023-05-19T04:44:19;7.90;99.90
7240;DHT22;3661;53.288;10.458;2023-05-19T04:46:51;7.90;99.90
7240;DHT22;3661;53.288;10.458;2023-05-19T04:49:24;8.00;99.90
7240;DHT22;3661;53.288;10.458;2023-05-19T04:51:58;8.00;99.90
7240;DHT22;3661;53.288;10.458;2023-05-19T04:54:30;8.00;99.90
7240;DHT22;3661;53.288;10.458;2023-05-19T04:57:03;8.10;99.90
7240;DHT22;3661;53.288;10.458;2023-05-19T04:59:36;8.10;99.90
7240;DHT22;3661;53.288;10.458;2023-05-19T05:02:08;8.10;99.90
7240;DHT22;3661;53.288;10.458;2023-05-19T05:04:40;8.20;99.90
7240;DHT22;3661;53.288;10.458;2023-05-19T05:07:15;8.20;99.90
7240;DHT22;3661;53.288;10.458;2023-05-19T05:09:48;8.20;99.90
7240;DHT22;3661;53.288;10.458;2023-05-19T05:12:21;8.30;99.90
7240;DHT22;3661;53.288;10.458;2023-05-19T05:14:53;8.30;99.90
7240;DHT22;3661;53.288;10.458;2023-05-19T05:17:26;8.30;99.90
7240;DHT22;3661;53.288;10.458;2023-05-19T05:19:59;8.40;99.90
7240;DHT22;3661;53.288;10.458;2023-05-19T05:22:34;8.40;99.90
7240;DHT22;3661;53.288;10.458;2023-05-19T05:25:09;8.50;99.90
7240;DHT22;3661;53.288;10.458;2023-05-19T05:27:42;8.60;99.90
7240;DHT22;3661;53.288;10.458;2023-05-19T05:30:16;8.60;99.90
7240;DHT22;3661;53.288;10.458;2023-05-19T05:32:49;8.70;99.90
7240;DHT22;3661;53.288;10.458;2023-05-19T05:35:22;8.70;99.90
7240;DHT22;3661;53.288;10.458;2023-05-19T05:37:56;8.70;99.90
7240;DHT22;3661;53.288;10.458;2023-05-19T05:40:29;8.80;99.90
7240;DHT22;3661;53.288;10.458;2023-05-19T05:43:01;8.80;99.90
7240;DHT22;3661;53.288;10.458;2023-05-19T05:45:33;8.90;99.90
7240;DHT22;3661;53.288;10.458;2023-05-19T05:48:06;8.90;99.90
7240;DHT22;3661;53.288;10.458;2023-05-19T05:50:38;9.00;99.90
7240;DHT22;3661;53.288;10.458;2023-05-19T05:53:16;9.00;99.90
7240;DHT22;3661;53.288;10.458;2023-05-19T05:55:49;9.10;99.90
7240;DHT22;3661;53.288;10.458;2023-05-19T05:58:24;9.10;99.90
7240;DHT22;3661;53.288;10.458;2023-05-19T06:00:56;9.20;99.90
7240;DHT22;3661;53.288;10.458;2023-05-19T06:03:29;9.20;99.90
7240;DHT22;3661;53.288;10.458;2023-05-19T06:06:01;9.30;99.90
7240;DHT22;3661;53.288;10.458;2023-05-19T06:08:35;9.40;99.90
7240;DHT22;3661;53.288;10.458;2023-05-19T06:11:07;9.40;99.90
7240;DHT22;3661;53.288;10.458;2023-05-19T06:13:39;9.50;99.90
7240;DHT22;3661;53.288;10.458;2023-05-19T06:16:12;9.60;99.90
7240;DHT22;3661;53.288;10.458;2023-05-19T06:18:44;9.70;99.90
7240;DHT22;3661;53.288;10.458;2023-05-19T06:21:20;9.80;99.90
7240;DHT22;3661;53.288;10.458;2023-05-19T06:23:54;9.90;99.90
7240;DHT22;3661;53.288;10.458;2023-05-19T06:26:26;10.00;99.90
7240;DHT22;3661;53.288;10.458;2023-05-19T06:28:58;10.10;99.90
7240;DHT22;3661;53.288;10.458;2023-05-19T06:31:31;10.30;99.90
7240;DHT22;3661;53.288;10.458;2023-05-19T06:34:04;10.40;99.90
7240;DHT22;3661;53.288;10.458;2023-05-19T06:36:36;10.50;99.90
7240;DHT22;3661;53.288;10.458;2023-05-19T06:39:11;10.60;99.90
7240;DHT22;3661;53.288;10.458;2023-05-19T06:41:46;10.70;99.90
7240;DHT22;3661;53.288;10.458;2023-05-19T06:44:18;10.90;99.90
7240;DHT22;3661;53.288;10.458;2023-05-19T06:46:50;11.00;99.90
7240;DHT22;3661;53.288;10.458;2023-05-19T06:49:23;11.10;99.90
7240;DHT22;3661;53.288;10.458;2023-05-19T06:51:59;11.20;99.90
7240;DHT22;3661;53.288;10.458;2023-05-19T06:54:33;11.30;99.90
7240;DHT22;3661;53.288;10.458;2023-05-19T06:57:05;11.50;99.90
7240;DHT22;3661;53.288;10.458;2023-05-19T06:59:37;11.60;99.90
7240;DHT22;3661;53.288;10.458;2023-05-19T07:02:11;11.70;99.90
7240;DHT22;3661;53.288;10.458;2023-05-19T07:04:44;11.80;99.90
7240;DHT22;3661;53.288;10.458;2023-05-19T07:07:17;12.00;99.90
7240;DHT22;3661;53.288;10.458;2023-05-19T07:09:50;12.10;99.90
7240;DHT22;3661;53.288;10.458;2023-05-19T07:12:23;12.20;99.90
7240;DHT22;3661;53.288;10.458;2023-05-19T07:14:56;12.30;99.90
7240;DHT22;3661;53.288;10.458;2023-05-19T07:17:28;12.40;99.90
7240;DHT22;3661;53.288;10.458;2023-05-19T07:20:00;12.50;99.90
7240;DHT22;3661;53.288;10.458;2023-05-19T07:22:36;12.70;99.90
7240;DHT22;3661;53.288;10.458;2023-05-19T07:25:11;12.80;99.90
7240;DHT22;3661;53.288;10.458;2023-05-19T07:27:43;12.90;99.90
7240;DHT22;3661;53.288;10.458;2023-05-19T07:30:15;13.00;99.90
7240;DHT22;3661;53.288;10.458;2023-05-19T07:32:47;13.00;99.90
7240;DHT22;3661;53.288;10.458;2023-05-19T07:35:20;13.10;99.90
7240;DHT22;3661;53.288;10.458;2023-05-19T07:37:52;13.20;99.90
7240;DHT22;3661;53.288;10.458;2023-05-19T07:40:26;13.30;99.90
7240;DHT22;3661;53.288;10.458;2023-05-19T07:42:58;13.30;99.90
7240;DHT22;3661;53.288;10.458;2023-05-19T07:45:30;13.40;99.90
7240;DHT22;3661;53.288;10.458;2023-05-19T07:48:02;13.50;99.90
7240;DHT22;3661;53.288;10.458;2023-05-19T07:50:34;13.60;99.90
7240;DHT22;3661;53.288;10.458;2023-05-19T07:53:06;13.60;99.90
7240;DHT22;3661;53.288;10.458;2023-05-19T07:55:40;13.70;99.70
7240;DHT22;3661;53.288;10.458;2023-05-19T07:58:12;13.80;99.20
7240;DHT22;3661;53.288;10.458;2023-05-19T08:00:44;13.80;98.50
7240;DHT22;3661;53.288;10.458;2023-05-19T08:03:16;13.90;98.00
7240;DHT22;3661;53.288;10.458;2023-05-19T08:05:48;14.00;97.60
7240;DHT22;3661;53.288;10.458;2023-05-19T08:08:21;14.00;97.30
7240;DHT22;3661;53.288;10.458;2023-05-19T08:10:54;14.10;97.10
7240;DHT22;3661;53.288;10.458;2023-05-19T08:13:26;14.20;97.10
7240;DHT22;3661;53.288;10.458;2023-05-19T08:15:59;14.30;97.10
7240;DHT22;3661;53.288;10.458;2023-05-19T08:18:31;14.40;96.80
7240;DHT22;3661;53.288;10.458;2023-05-19T08:21:03;14.40;96.50
7240;DHT22;3661;53.288;10.458;2023-05-19T08:23:36;14.50;96.60
7240;DHT22;3661;53.288;10.458;2023-05-19T08:26:31;14.60;96.70
7240;DHT22;3661;53.288;10.458;2023-05-19T08:29:03;14.70;96.50
7240;DHT22;3661;53.288;10.458;2023-05-19T08:31:37;14.80;96.30
7240;DHT22;3661;53.288;10.458;2023-05-19T08:34:09;15.00;96.30
7240;DHT22;3661;53.288;10.458;2023-05-19T08:36:42;15.00;96.40
7240;DHT22;3661;53.288;10.458;2023-05-19T08:39:14;15.20;96.40
7240;DHT22;3661;53.288;10.458;2023-05-19T08:41:51;15.30;95.80
7240;DHT22;3661;53.288;10.458;2023-05-19T08:44:23;15.50;95.50
7240;DHT22;3661;53.288;10.458;2023-05-19T08:46:57;15.60;95.40
7240;DHT22;3661;53.288;10.458;2023-05-19T08:49:32;15.70;95.10
7240;DHT22;3661;53.288;10.458;2023-05-19T08:52:13;15.90;95.00
7240;DHT22;3661;53.288;10.458;2023-05-19T08:54:52;16.10;94.50
7240;DHT22;3661;53.288;10.458;2023-05-19T08:57:27;16.20;94.10
7240;DHT22;3661;53.288;10.458;2023-05-19T09:00:00;16.30;93.80
7240;DHT22;3661;53.288;10.458;2023-05-19T09:02:35;16.40;93.20
7240;DHT22;3661;53.288;10.458;2023-05-19T09:05:08;16.60;93.10
7240;DHT22;3661;53.288;10.458;2023-05-19T09:07:42;16.70;92.80
7240;DHT22;3661;53.288;10.458;2023-05-19T09:10:15;16.80;92.40
7240;DHT22;3661;53.288;10.458;2023-05-19T09:12:49;17.00;92.00
7240;DHT22;3661;53.288;10.458;2023-05-19T09:15:25;17.10;91.90
7240;DHT22;3661;53.288;10.458;2023-05-19T09:18:06;17.20;91.40
7240;DHT22;3661;53.288;10.458;2023-05-19T09:20:39;17.30;91.00
7240;DHT22;3661;53.288;10.458;2023-05-19T09:23:12;17.40;90.80
7240;DHT22;3661;53.288;10.458;2023-05-19T09:25:46;17.50;90.80
7240;DHT22;3661;53.288;10.458;2023-05-19T09:28:28;17.70;90.60
7240;DHT22;3661;53.288;10.458;2023-05-19T09:31:02;17.70;90.10
7240;DHT22;3661;53.288;10.458;2023-05-19T09:33:35;17.80;90.00
7240;DHT22;3661;53.288;10.458;2023-05-19T09:36:08;18.00;90.00
7240;DHT22;3661;53.288;10.458;2023-05-19T09:38:40;18.10;90.00
7240;DHT22;3661;53.288;10.458;2023-05-19T09:41:13;18.10;89.00
7240;DHT22;3661;53.288;10.458;2023-05-19T09:43:53;18.30;89.00
7240;DHT22;3661;53.288;10.458;2023-05-19T09:46:25;18.40;88.80
7240;DHT22;3661;53.288;10.458;2023-05-19T09:48:58;18.50;88.20
7240;DHT22;3661;53.288;10.458;2023-05-19T09:51:30;18.60;87.50
7240;DHT22;3661;53.288;10.458;2023-05-19T09:54:02;18.70;87.00
7240;DHT22;3661;53.288;10.458;2023-05-19T09:56:35;18.80;86.80
7240;DHT22;3661;53.288;10.458;2023-05-19T09:59:09;18.90;86.30
7240;DHT22;3661;53.288;10.458;2023-05-19T10:01:42;19.00;86.00
7240;DHT22;3661;53.288;10.458;2023-05-19T10:04:16;19.10;85.90
7240;DHT22;3661;53.288;10.458;2023-05-19T10:06:49;19.20;86.10
7240;DHT22;3661;53.288;10.458;2023-05-19T10:09:25;19.30;86.10
7240;DHT22;3661;53.288;10.458;2023-05-19T10:11:58;19.50;85.70
7240;DHT22;3661;53.288;10.458;2023-05-19T10:14:31;19.50;85.00
7240;DHT22;3661;53.288;10.458;2023-05-19T10:17:04;19.70;84.40
7240;DHT22;3661;53.288;10.458;2023-05-19T10:19:37;19.80;84.00
7240;DHT22;3661;53.288;10.458;2023-05-19T10:22:11;19.80;83.70
7240;DHT22;3661;53.288;10.458;2023-05-19T10:24:43;20.00;84.00
7240;DHT22;3661;53.288;10.458;2023-05-19T10:27:16;20.10;83.90
7240;DHT22;3661;53.288;10.458;2023-05-19T10:29:50;20.20;83.40
7240;DHT22;3661;53.288;10.458;2023-05-19T10:32:29;20.20;82.70
7240;DHT22;3661;53.288;10.458;2023-05-19T10:35:32;20.30;82.20
7240;DHT22;3661;53.288;10.458;2023-05-19T10:38:15;20.40;81.30
7240;DHT22;3661;53.288;10.458;2023-05-19T10:40:56;20.50;80.90
7240;DHT22;3661;53.288;10.458;2023-05-19T10:43:41;20.60;81.20
7240;DHT22;3661;53.288;10.458;2023-05-19T10:46:17;20.60;81.00
7240;DHT22;3661;53.288;10.458;2023-05-19T10:48:50;20.70;81.40
7240;DHT22;3661;53.288;10.458;2023-05-19T10:51:29;20.80;80.90
7240;DHT22;3661;53.288;10.458;2023-05-19T10:54:01;20.90;81.20
7240;DHT22;3661;53.288;10.458;2023-05-19T10:56:38;20.90;80.10
7240;DHT22;3661;53.288;10.458;2023-05-19T10:59:29;21.00;79.50
7240;DHT22;3661;53.288;10.458;2023-05-19T11:02:07;21.10;78.70
7240;DHT22;3661;53.288;10.458;2023-05-19T11:04:45;21.10;77.80
7240;DHT22;3661;53.288;10.458;2023-05-19T11:07:18;21.10;76.80
7240;DHT22;3661;53.288;10.458;2023-05-19T11:09:52;21.10;76.30
7240;DHT22;3661;53.288;10.458;2023-05-19T11:12:24;21.00;76.20
7240;DHT22;3661;53.288;10.458;2023-05-19T11:14:57;21.00;76.20
7240;DHT22;3661;53.288;10.458;2023-05-19T11:17:31;20.90;76.20
7240;DHT22;3661;53.288;10.458;2023-05-19T11:20:08;20.80;76.20
7240;DHT22;3661;53.288;10.458;2023-05-19T11:22:41;20.70;76.20
7240;DHT22;3661;53.288;10.458;2023-05-19T11:25:41;20.70;76.80
7240;DHT22;3661;53.288;10.458;2023-05-19T11:28:18;20.60;76.20
7240;DHT22;3661;53.288;10.458;2023-05-19T11:30:53;20.60;76.00
7240;DHT22;3661;53.288;10.458;2023-05-19T11:33:28;20.60;76.10
7240;DHT22;3661;53.288;10.458;2023-05-19T11:36:03;20.50;76.20
7240;DHT22;3661;53.288;10.458;2023-05-19T11:38:36;20.60;76.10
7240;DHT22;3661;53.288;10.458;2023-05-19T11:41:08;20.60;76.20
7240;DHT22;3661;53.288;10.458;2023-05-19T11:43:41;20.60;76.40
7240;DHT22;3661;53.288;10.458;2023-05-19T11:46:13;20.70;76.90
7240;DHT22;3661;53.288;10.458;2023-05-19T11:48:47;20.80;77.00
7240;DHT22;3661;53.288;10.458;2023-05-19T11:51:21;20.90;77.00
7240;DHT22;3661;53.288;10.458;2023-05-19T11:53:53;20.90;76.70
7240;DHT22;3661;53.288;10.458;2023-05-19T11:56:25;21.00;76.50
7240;DHT22;3661;53.288;10.458;2023-05-19T11:58:57;21.00;76.10
7240;DHT22;3661;53.288;10.458;2023-05-19T12:01:30;21.00;75.80
7240;DHT22;3661;53.288;10.458;2023-05-19T12:04:07;21.00;75.70
7240;DHT22;3661;53.288;10.458;2023-05-19T12:06:39;21.00;75.20
7240;DHT22;3661;53.288;10.458;2023-05-19T12:09:12;20.90;75.20
7240;DHT22;3661;53.288;10.458;2023-05-19T12:11:45;20.90;75.40
7240;DHT22;3661;53.288;10.458;2023-05-19T12:14:18;20.90;75.40
7240;DHT22;3661;53.288;10.458;2023-05-19T12:16:50;20.90;75.20
7240;DHT22;3661;53.288;10.458;2023-05-19T12:19:24;20.80;75.20
7240;DHT22;3661;53.288;10.458;2023-05-19T12:21:57;20.70;75.00
7240;DHT22;3661;53.288;10.458;2023-05-19T12:24:31;20.80;75.10
7240;DHT22;3661;53.288;10.458;2023-05-19T12:27:05;20.70;75.20
7240;DHT22;3661;53.288;10.458;2023-05-19T12:29:38;20.70;75.40
7240;DHT22;3661;53.288;10.458;2023-05-19T12:32:10;20.60;75.60
7240;DHT22;3661;53.288;10.458;2023-05-19T12:34:44;20.50;75.70
7240;DHT22;3661;53.288;10.458;2023-05-19T12:37:17;20.50;76.90
7240;DHT22;3661;53.288;10.458;2023-05-19T12:39:49;20.50;76.40
7240;DHT22;3661;53.288;10.458;2023-05-19T12:42:22;20.50;76.90
7240;DHT22;3661;53.288;10.458;2023-05-19T12:44:54;20.50;77.20
7240;DHT22;3661;53.288;10.458;2023-05-19T12:47:31;20.60;77.30
7240;DHT22;3661;53.288;10.458;2023-05-19T12:50:07;20.60;76.60
7240;DHT22;3661;53.288;10.458;2023-05-19T12:52:41;20.70;76.50
7240;DHT22;3661;53.288;10.458;2023-05-19T12:55:13;20.70;76.40
7240;DHT22;3661;53.288;10.458;2023-05-19T12:57:48;20.60;76.40
7240;DHT22;3661;53.288;10.458;2023-05-19T13:00:22;20.50;76.70
7240;DHT22;3661;53.288;10.458;2023-05-19T13:02:58;20.50;76.90
7240;DHT22;3661;53.288;10.458;2023-05-19T13:05:34;20.40;77.00
7240;DHT22;3661;53.288;10.458;2023-05-19T13:08:09;20.30;76.90
7240;DHT22;3661;53.288;10.458;2023-05-19T13:10:43;20.20;77.20
7240;DHT22;3661;53.288;10.458;2023-05-19T13:13:16;20.10;77.50
7240;DHT22;3661;53.288;10.458;2023-05-19T13:15:48;20.00;77.60
7240;DHT22;3661;53.288;10.458;2023-05-19T13:18:20;19.90;77.90
7240;DHT22;3661;53.288;10.458;2023-05-19T13:20:53;19.90;78.30
7240;DHT22;3661;53.288;10.458;2023-05-19T13:23:25;19.80;78.40
7240;DHT22;3661;53.288;10.458;2023-05-19T13:25:58;19.80;78.60
7240;DHT22;3661;53.288;10.458;2023-05-19T13:28:30;19.70;78.50
7240;DHT22;3661;53.288;10.458;2023-05-19T13:31:02;19.70;78.50
7240;DHT22;3661;53.288;10.458;2023-05-19T13:33:34;19.60;78.10
7240;DHT22;3661;53.288;10.458;2023-05-19T13:36:08;19.60;77.90
7240;DHT22;3661;53.288;10.458;2023-05-19T13:38:40;19.60;77.60
7240;DHT22;3661;53.288;10.458;2023-05-19T13:41:12;19.70;77.50
7240;DHT22;3661;53.288;10.458;2023-05-19T13:43:44;19.70;77.20
7240;DHT22;3661;53.288;10.458;2023-05-19T13:46:16;19.70;77.20
7240;DHT22;3661;53.288;10.458;2023-05-19T13:48:48;19.70;77.40
7240;DHT22;3661;53.288;10.458;2023-05-19T13:51:22;19.80;78.70
7240;DHT22;3661;53.288;10.458;2023-05-19T13:53:54;19.80;79.50
7240;DHT22;3661;53.288;10.458;2023-05-19T13:56:29;19.80;80.00
7240;DHT22;3661;53.288;10.458;2023-05-19T13:59:02;19.80;80.10
7240;DHT22;3661;53.288;10.458;2023-05-19T14:01:34;19.80;80.30
7240;DHT22;3661;53.288;10.458;2023-05-19T14:04:06;19.80;80.80
7240;DHT22;3661;53.288;10.458;2023-05-19T14:06:40;19.80;81.30
7240;DHT22;3661;53.288;10.458;2023-05-19T14:09:12;19.80;81.80
7240;DHT22;3661;53.288;10.458;2023-05-19T14:11:44;19.90;82.30
7240;DHT22;3661;53.288;10.458;2023-05-19T14:14:16;19.90;82.50
7240;DHT22;3661;53.288;10.458;2023-05-19T14:16:51;20.00;82.60
7240;DHT22;3661;53.288;10.458;2023-05-19T14:19:23;20.10;82.90
7240;DHT22;3661;53.288;10.458;2023-05-19T14:22:01;20.20;83.40
7240;DHT22;3661;53.288;10.458;2023-05-19T14:24:33;20.40;83.80
7240;DHT22;3661;53.288;10.458;2023-05-19T14:27:05;20.50;83.60
7240;DHT22;3661;53.288;10.458;2023-05-19T14:29:37;20.60;83.30
7240;DHT22;3661;53.288;10.458;2023-05-19T14:32:10;20.60;82.70
7240;DHT22;3661;53.288;10.458;2023-05-19T14:34:42;20.70;82.30
7240;DHT22;3661;53.288;10.458;2023-05-19T14:37:16;20.70;82.00
7240;DHT22;3661;53.288;10.458;2023-05-19T14:39:49;20.70;82.00
7240;DHT22;3661;53.288;10.458;2023-05-19T14:42:21;20.70;82.40
7240;DHT22;3661;53.288;10.458;2023-05-19T14:44:53;20.70;82.70
7240;DHT22;3661;53.288;10.458;2023-05-19T14:47:25;20.60;82.80
7240;DHT22;3661;53.288;10.458;2023-05-19T14:49:57;20.50;83.10
7240;DHT22;3661;53.288;10.458;2023-05-19T14:52:31;20.40;83.70
7240;DHT22;3661;53.288;10.458;2023-05-19T14:55:04;20.40;83.00
7240;DHT22;3661;53.288;10.458;2023-05-19T14:57:36;20.30;83.10
7240;DHT22;3661;53.288;10.458;2023-05-19T15:00:09;20.20;83.40
7240;DHT22;3661;53.288;10.458;2023-05-19T15:02:41;20.20;84.00
7240;DHT22;3661;53.288;10.458;2023-05-19T15:05:14;20.10;83.60
7240;DHT22;3661;53.288;10.458;2023-05-19T15:07:48;20.10;83.80
7240;DHT22;3661;53.288;10.458;2023-05-19T15:10:20;20.00;83.80
7240;DHT22;3661;53.288;10.458;2023-05-19T15:12:52;19.90;83.90
7240;DHT22;3661;53.288;10.458;2023-05-19T15:15:26;19.90;84.20
7240;DHT22;3661;53.288;10.458;2023-05-19T15:17:58;19.90;84.50
7240;DHT22;3661;53.288;10.458;2023-05-19T15:20:30;19.80;84.50
7240;DHT22;3661;53.288;10.458;2023-05-19T15:23:03;19.70;84.40
7240;DHT22;3661;53.288;10.458;2023-05-19T15:25:36;19.70;84.60
7240;DHT22;3661;53.288;10.458;2023-05-19T15:28:08;19.70;84.80
7240;DHT22;3661;53.288;10.458;2023-05-19T15:30:40;19.80;85.00
7240;DHT22;3661;53.288;10.458;2023-05-19T15:33:14;19.80;84.80
7240;DHT22;3661;53.288;10.458;2023-05-19T15:35:46;19.90;84.00
7240;DHT22;3661;53.288;10.458;2023-05-19T15:38:23;20.00;83.40
7240;DHT22;3661;53.288;10.458;2023-05-19T15:40:55;20.10;82.70
7240;DHT22;3661;53.288;10.458;2023-05-19T15:43:27;20.20;82.40
7240;DHT22;3661;53.288;10.458;2023-05-19T15:45:59;20.30;82.50
7240;DHT22;3661;53.288;10.458;2023-05-19T15:48:34;20.40;82.70
7240;DHT22;3661;53.288;10.458;2023-05-19T15:51:09;20.50;82.80
7240;DHT22;3661;53.288;10.458;2023-05-19T15:53:46;20.60;82.70
7240;DHT22;3661;53.288;10.458;2023-05-19T15:56:18;20.70;82.70
7240;DHT22;3661;53.288;10.458;2023-05-19T15:58:51;20.80;82.80
7240;DHT22;3661;53.288;10.458;2023-05-19T16:01:23;20.80;82.70
7240;DHT22;3661;53.288;10.458;2023-05-19T16:03:55;20.80;82.60
7240;DHT22;3661;53.288;10.458;2023-05-19T16:06:28;20.80;82.60
7240;DHT22;3661;53.288;10.458;2023-05-19T16:09:02;20.80;82.80
7240;DHT22;3661;53.288;10.458;2023-05-19T16:11:34;20.60;82.90
7240;DHT22;3661;53.288;10.458;2023-05-19T16:14:06;20.60;83.00
7240;DHT22;3661;53.288;10.458;2023-05-19T16:16:39;20.50;83.20
7240;DHT22;3661;53.288;10.458;2023-05-19T16:19:11;20.40;83.40
7240;DHT22;3661;53.288;10.458;2023-05-19T16:21:43;20.30;83.50
7240;DHT22;3661;53.288;10.458;2023-05-19T16:24:18;20.10;83.60
7240;DHT22;3661;53.288;10.458;2023-05-19T16:26:52;20.00;83.80
7240;DHT22;3661;53.288;10.458;2023-05-19T16:29:24;19.90;83.90
7240;DHT22;3661;53.288;10.458;2023-05-19T16:31:56;19.90;84.00
7240;DHT22;3661;53.288;10.458;2023-05-19T16:34:28;19.80;83.80
7240;DHT22;3661;53.288;10.458;2023-05-19T16:37:00;19.70;83.70
7240;DHT22;3661;53.288;10.458;2023-05-19T16:39:35;19.60;83.80